Time;durP1;ratioP1;P1;durP2;ratioP2;P2;SDS_P1;SDS_P2;PMS_P1;PMS_P2;Temp;Humidity;BMP_temperature;BMP_pressure;BME280_temperature;BME280_humidity;BME280_pressure;Samples;Min_cycle;Max_cycle;Signal;HPM_P1;HPM_P2
2022/05/07 00:02:07;;;;;;;5.75;5.20;;;;;;;11.88;86.94;102046.59;4992858;28;20203;-44
2022/05/07 00:04:36;;;;;;;9.00;6.35;;;;;;;11.73;86.94;102041.56;4993244;28;20582;-49
2022/05/07 00:07:05;;;;;;;7.80;6.65;;;;;;;11.69;87.33;102048.78;4992860;28;20178;-42
2022/05/07 00:09:31;;;;;;;8.82;7.05;;;;;;;11.77;87.72;102045.94;4992950;28;20201;-44
2022/05/07 00:11:57;;;;;;;9.13;7.40;;;;;;;11.83;87.59;102037.75;4992861;28;20493;-42
2022/05/07 00:14:22;;;;;;;9.23;7.05;;;;;;;11.87;87.25;102039.44;4993064;28;20212;-43
2022/05/07 00:19:32;;;;;;;7.85;7.15;;;;;;;11.86;87.38;102044.84;4992578;28;20575;-44
2022/05/07 00:21:58;;;;;;;10.00;8.35;;;;;;;11.78;86.96;102042.31;4992584;28;20166;-49
2022/05/07 00:24:23;;;;;;;10.02;8.35;;;;;;;11.79;87.10;102044.09;4992387;28;20169;-43
2022/05/07 00:26:49;;;;;;;8.90;7.85;;;;;;;11.66;87.97;102039.94;4992784;28;20250;-46
2022/05/07 00:29:14;;;;;;;9.25;8.32;;;;;;;11.69;88.31;102043.44;4992014;28;20232;-44
2022/05/07 00:31:39;;;;;;;13.68;9.30;;;;;;;11.63;88.30;102043.59;4992449;28;20166;-45
2022/05/07 00:34:05;;;;;;;11.50;9.60;;;;;;;11.68;88.38;102033.63;4991953;28;20648;-44
2022/05/07 00:36:31;;;;;;;9.80;8.45;;;;;;;11.73;87.84;102038.88;4990428;28;20177;-45
2022/05/07 00:38:56;;;;;;;10.50;8.85;;;;;;;11.59;88.10;102043.66;4992358;28;20305;-44
2022/05/07 00:41:22;;;;;;;9.30;8.13;;;;;;;11.73;88.24;102036.19;4991441;28;20205;-43
2022/05/07 00:43:47;;;;;;;10.05;8.80;;;;;;;11.77;87.55;102051.31;4990367;28;20255;-44
2022/05/07 00:46:13;;;;;;;10.20;9.20;;;;;;;11.65;87.80;102052.47;4990260;28;20676;-45
2022/05/07 00:48:38;;;;;;;12.90;10.93;;;;;;;11.62;88.08;102040.94;4991651;28;20289;-46
2022/05/07 00:53:49;;;;;;;20.38;13.60;;;;;;;11.41;89.03;102048.53;4990985;28;20178;-45
2022/05/07 00:56:15;;;;;;;15.20;13.07;;;;;;;11.39;89.38;102042.34;4990310;28;20177;-44
2022/05/07 00:58:41;;;;;;;18.20;15.55;;;;;;;11.28;90.31;102039.91;4990278;28;20177;-46
2022/05/07 01:01:06;;;;;;;23.40;18.17;;;;;;;11.25;91.02;102039.94;4991695;28;20236;-48
2022/05/07 01:03:33;;;;;;;24.13;17.77;;;;;;;11.22;91.50;102040.03;4989584;28;20546;-44
2022/05/07 01:06:00;;;;;;;21.45;17.80;;;;;;;11.28;91.82;102039.91;4990061;28;20263;-45
2022/05/07 01:08:26;;;;;;;21.75;16.40;;;;;;;11.27;91.59;102031.88;4989848;28;20554;-45
2022/05/07 01:10:52;;;;;;;25.25;20.73;;;;;;;11.11;92.03;102031.31;4991360;28;20197;-43
2022/05/07 01:13:21;;;;;;;24.52;19.92;;;;;;;11.19;92.80;102032.03;4989949;28;20205;-43
2022/05/07 01:15:48;;;;;;;21.77;18.75;;;;;;;11.26;92.79;102036.38;4989042;28;20612;-44
2022/05/07 01:18:16;;;;;;;27.92;18.40;;;;;;;11.33;92.33;102031.75;4989948;28;20169;-45
2022/05/07 01:20:41;;;;;;;23.55;18.70;;;;;;;11.32;92.05;102033.53;4984392;28;20209;-44
2022/05/07 01:23:08;;;;;;;22.98;19.88;;;;;;;11.21;92.18;102040.94;4990683;28;20191;-44
2022/05/07 01:25:34;;;;;;;21.52;17.95;;;;;;;11.25;92.10;102028.34;4989899;28;20197;-45
2022/05/07 01:27:59;;;;;;;22.75;17.77;;;;;;;11.30;92.03;102038.06;4989531;28;20609;-45
2022/05/07 01:30:26;;;;;;;24.55;18.45;;;;;;;11.24;92.08;102038.19;4988910;28;20193;-44
2022/05/07 01:32:52;;;;;;;25.42;19.73;;;;;;;10.95;92.23;102028.06;4990792;28;20519;-42
2022/05/07 01:35:18;;;;;;;22.42;19.98;;;;;;;10.91;93.20;102029.03;4989008;28;20173;-42
2022/05/07 01:40:19;;;;;;;22.15;18.52;;;;;;;10.86;94.63;102017.53;4946117;28;20285;-44
2022/05/07 01:42:49;;;;;;;24.17;19.20;;;;;;;10.73;94.37;102019.56;4956892;28;20242;-45
2022/05/07 01:45:14;;;;;;;21.27;18.08;;;;;;;10.92;94.48;102020.97;4949546;28;20215;-45
2022/05/07 01:50:30;;;;;;;25.35;19.15;;;;;;;10.73;94.59;102014.22;4969741;28;20213;-46
2022/05/07 01:52:56;;;;;;;23.13;20.00;;;;;;;10.79;94.78;102024.81;4970222;28;20182;-48
2022/05/07 01:55:21;;;;;;;22.75;18.98;;;;;;;10.78;94.25;102028.41;4969022;28;20177;-49
2022/05/07 01:57:50;;;;;;;23.70;18.13;;;;;;;10.74;94.03;102020.47;4970125;28;20530;-48
2022/05/07 02:00:17;;;;;;;22.15;18.38;;;;;;;10.87;93.99;102027.34;4969509;28;20205;-48
2022/05/07 02:02:43;;;;;;;23.50;17.05;;;;;;;10.92;93.83;102041.53;4969951;28;20186;-52
2022/05/07 02:05:16;;;;;;;24.25;18.40;;;;;;;10.81;93.70;102031.03;4969512;28;20322;-49
2022/05/07 02:07:41;;;;;;;24.85;19.90;;;;;;;10.82;93.85;102023.88;4971056;28;20190;-49
2022/05/07 02:10:08;;;;;;;25.05;21.10;;;;;;;10.83;94.02;102037.25;4970998;28;20316;-50
2022/05/07 02:12:34;;;;;;;27.83;21.98;;;;;;;10.72;94.48;102031.22;4970520;28;20261;-49
2022/05/07 02:15:00;;;;;;;27.63;22.92;;;;;;;10.63;94.86;102039.44;4968644;28;20174;-48
2022/05/07 02:17:26;;;;;;;38.35;29.50;;;;;;;10.59;96.02;102025.22;4970664;28;20186;-49
2022/05/07 02:19:52;;;;;;;38.17;29.70;;;;;;;10.56;96.85;102017.25;4969782;28;20189;-50
2022/05/07 02:22:17;;;;;;;42.30;30.85;;;;;;;10.44;97.77;102010.28;4973219;28;20676;-52
2022/05/07 02:24:42;;;;;;;41.63;32.25;;;;;;;10.54;98.30;102011.03;4973048;28;20185;-50
2022/05/07 02:27:08;;;;;;;39.40;31.45;;;;;;;10.61;98.60;102018.03;4974618;28;20305;-50
2022/05/07 02:29:33;;;;;;;37.92;30.75;;;;;;;10.57;98.78;102018.13;4973028;28;20205;-50
2022/05/07 02:32:05;;;;;;;35.20;29.38;;;;;;;10.61;98.88;102017.16;4973907;28;20177;-51
2022/05/07 02:34:36;;;;;;;41.28;31.02;;;;;;;10.66;98.56;102013.44;4973186;28;20166;-46
2022/05/07 02:37:04;;;;;;;41.17;31.35;;;;;;;10.72;98.56;102012.44;4973000;28;20616;-46
2022/05/07 02:39:30;;;;;;;39.50;29.92;;;;;;;10.79;98.39;102018.56;4972648;28;20263;-48
2022/05/07 02:44:42;;;;;;;43.42;30.60;;;;;;;10.60;98.46;102018.91;4972773;28;20659;-45
2022/05/07 02:47:09;;;;;;;40.08;31.48;;;;;;;10.55;98.70;102018.13;4973011;28;20232;-46
2022/05/07 02:49:35;;;;;;;41.20;31.77;;;;;;;10.57;98.87;102024.34;4972788;28;20210;-49
2022/05/07 02:52:02;;;;;;;40.40;31.80;;;;;;;10.59;99.05;102032.38;4974277;28;20185;-46
2022/05/07 02:54:28;;;;;;;42.83;33.78;;;;;;;10.63;99.14;102032.28;4972480;28;20220;-47
2022/05/07 02:56:56;;;;;;;40.75;32.60;;;;;;;10.57;98.98;102024.34;4974464;28;20178;-47
2022/05/07 02:59:23;;;;;;;41.85;32.67;;;;;;;10.52;99.05;102020.88;4972403;28;20197;-48
2022/05/07 03:01:48;;;;;;;39.72;32.20;;;;;;;10.60;99.66;102013.56;4973012;28;20201;-47
2022/05/07 03:04:14;;;;;;;35.65;28.58;;;;;;;10.69;99.34;102013.41;4972091;28;20204;-46
2022/05/07 03:06:39;;;;;;;44.88;33.38;;;;;;;10.65;99.34;102026.91;4972503;28;20237;-46
2022/05/07 03:09:05;;;;;;;41.10;32.35;;;;;;;10.56;99.26;102024.38;4972622;28;20197;-49
2022/05/07 03:11:34;;;;;;;41.67;33.40;;;;;;;10.54;99.96;102013.69;4973890;28;20613;-47
2022/05/07 03:14:01;;;;;;;44.75;33.83;;;;;;;10.57;99.93;102019.00;4972544;28;20182;-46
2022/05/07 03:16:27;;;;;;;44.03;35.65;;;;;;;10.59;100.00;102027.00;4973508;28;20660;-47
2022/05/07 03:18:53;;;;;;;49.35;36.83;;;;;;;10.56;100.00;102029.72;4972421;28;20273;-47
2022/05/07 03:21:20;;;;;;;46.63;36.63;;;;;;;10.56;100.00;102029.72;4963959;28;20273;-48
2022/05/07 03:23:46;;;;;;;46.33;33.97;;;;;;;10.62;100.00;102022.44;4952519;28;20183;-46
2022/05/07 03:26:13;;;;;;;46.95;34.08;;;;;;;10.52;100.00;102027.13;4953160;28;20222;-47
2022/05/07 03:28:39;;;;;;;53.60;37.90;;;;;;;10.51;100.00;102019.97;4952516;29;20183;-46
2022/05/07 03:31:06;;;;;;;44.03;35.55;;;;;;;10.62;100.00;102033.19;4954828;28;20261;-47
2022/05/07 03:33:32;;;;;;;46.95;35.65;;;;;;;10.72;100.00;102020.50;4961555;28;20179;-48
2022/05/07 03:35:58;;;;;;;45.95;35.92;;;;;;;10.67;100.00;102022.34;4952518;28;20175;-47
2022/05/07 03:38:24;;;;;;;49.40;36.67;;;;;;;10.68;100.00;102029.50;4952214;28;20693;-47
2022/05/07 03:41:05;;;;;;;46.92;35.53;;;;;;;10.66;100.00;102025.97;4952462;29;20225;-47
2022/05/07 03:43:36;;;;;;;47.97;37.35;;;;;;;10.62;100.00;102026.94;4952537;29;20265;-47
2022/05/07 03:46:04;;;;;;;51.92;38.20;;;;;;;10.63;100.00;102013.53;4951901;29;20322;-47
2022/05/07 03:48:30;;;;;;;48.13;38.40;;;;;;;10.68;100.00;102013.44;4956475;28;20552;-47
2022/05/07 03:50:56;;;;;;;46.63;35.92;;;;;;;10.73;100.00;102008.84;4972914;28;20205;-47
2022/05/07 03:53:31;;;;;;;47.00;37.65;;;;;;;10.66;100.00;102017.94;4971642;28;20186;-48
2022/05/07 03:56:08;;;;;;;53.45;39.13;;;;;;;10.71;100.00;102026.75;4970975;28;20229;-48
2022/05/07 03:58:36;;;;;;;50.35;37.92;;;;;;;10.80;100.00;102025.69;4973091;28;20162;-49
2022/05/07 04:01:03;;;;;;;52.55;38.20;;;;;;;10.78;100.00;102027.50;4971438;28;20230;-49
2022/05/07 04:03:30;;;;;;;52.22;39.20;;;;;;;10.69;100.00;102018.75;4971045;28;20214;-45
2022/05/07 04:05:57;;;;;;;51.35;38.25;;;;;;;10.79;100.00;102023.94;4970918;28;20202;-46
2022/05/07 04:08:23;;;;;;;49.85;39.30;;;;;;;10.83;100.00;102015.81;4972542;28;20171;-47
2022/05/07 04:10:51;;;;;;;49.70;37.33;;;;;;;10.85;99.85;102018.47;4972347;28;20723;-47
2022/05/07 04:13:20;;;;;;;47.00;37.03;;;;;;;10.84;99.97;102022.03;4970890;28;20173;-46
2022/05/07 04:15:52;;;;;;;44.15;34.75;;;;;;;10.91;100.00;102023.66;4970727;28;20254;-48
2022/05/07 04:18:20;;;;;;;47.95;37.97;;;;;;;10.87;99.74;102022.00;4971347;28;20722;-47
2022/05/07 04:20:50;;;;;;;46.10;38.13;;;;;;;10.85;100.00;102026.50;4970679;28;20198;-46
2022/05/07 04:23:16;;;;;;;52.08;41.25;;;;;;;10.89;100.00;102020.16;4970761;28;20269;-47
2022/05/07 04:25:45;;;;;;;53.28;39.97;;;;;;;10.95;100.00;102024.50;4954829;28;20704;-46
2022/05/07 04:28:13;;;;;;;52.70;40.47;;;;;;;10.97;100.00;102022.69;4970623;28;20504;-47
2022/05/07 04:30:43;;;;;;;56.67;40.97;;;;;;;11.03;100.00;102019.88;4970410;28;20688;-46
2022/05/07 04:33:09;;;;;;;51.38;40.47;;;;;;;10.98;100.00;102025.34;4970880;28;20618;-46
2022/05/07 04:35:34;;;;;;;54.83;42.78;;;;;;;10.97;99.74;102023.53;4971838;28;20265;-47
2022/05/07 04:38:03;;;;;;;51.97;41.28;;;;;;;11.07;99.45;102025.13;4971011;28;20178;-46
2022/05/07 04:40:29;;;;;;;57.78;43.13;;;;;;;10.91;99.88;102031.72;4971018;28;20234;-48
2022/05/07 04:42:56;;;;;;;54.05;42.20;;;;;;;10.97;100.00;102031.59;4970465;28;20256;-47
2022/05/07 04:45:22;;;;;;;56.92;42.03;;;;;;;11.09;99.99;102033.16;4970380;28;20661;-49
2022/05/07 04:47:59;;;;;;;58.53;44.30;;;;;;;11.03;99.51;102031.47;4970756;28;20178;-49
2022/05/07 04:50:29;;;;;;;53.70;42.08;;;;;;;11.03;99.54;102039.50;4967429;28;20756;-46
2022/05/07 04:53:17;;;;;;;54.95;42.40;;;;;;;11.10;99.98;102024.19;4951785;29;20187;-48
2022/05/07 04:55:44;;;;;;;58.72;44.20;;;;;;;11.10;99.94;102034.91;4950785;29;20181;-47
2022/05/07 04:58:10;;;;;;;51.10;39.97;;;;;;;11.18;100.00;102043.69;4952879;29;20214;-47
2022/05/07 05:00:38;;;;;;;55.00;42.38;;;;;;;11.18;99.75;102032.94;4950988;29;20210;-48
2022/05/07 05:03:10;;;;;;;55.67;42.08;;;;;;;11.30;99.44;102031.78;4951577;29;20229;-46
2022/05/07 05:05:38;;;;;;;50.95;41.30;;;;;;;11.34;99.11;102042.41;4935219;29;20210;-46
2022/05/07 05:08:11;;;;;;;54.70;44.00;;;;;;;11.25;99.09;102041.75;4951488;29;20178;-47
2022/05/07 05:10:37;;;;;;;57.35;44.03;;;;;;;11.27;99.12;102043.47;4952187;29;20210;-47
2022/05/07 05:13:03;;;;;;;54.55;42.35;;;;;;;11.35;98.97;102051.38;4951367;29;20519;-46
2022/05/07 05:15:29;;;;;;;55.40;41.42;;;;;;;11.44;98.57;102042.25;4950853;29;20230;-47
2022/05/07 05:18:01;;;;;;;53.78;42.30;;;;;;;11.44;98.77;102051.16;4950969;29;20269;-48
2022/05/07 05:20:28;;;;;;;52.97;42.05;;;;;;;11.32;98.53;102051.44;4950709;29;20195;-46
2022/05/07 05:23:06;;;;;;;54.13;41.65;;;;;;;11.49;98.63;102048.38;4950795;29;20182;-47
2022/05/07 05:25:42;;;;;;;53.80;41.70;;;;;;;11.38;98.54;102051.28;4950530;29;20290;-46
2022/05/07 05:28:11;;;;;;;51.47;39.25;;;;;;;11.57;98.77;102046.41;4950797;29;20174;-47
2022/05/07 05:30:38;;;;;;;53.15;38.67;;;;;;;11.65;98.28;102060.50;4950635;29;20207;-47
2022/05/07 05:33:08;;;;;;;49.80;40.15;;;;;;;11.62;97.83;102054.34;4950972;29;20616;-47
2022/05/07 05:35:35;;;;;;;53.42;39.28;;;;;;;11.69;97.43;102050.59;4949903;29;20523;-48
2022/05/07 05:38:01;;;;;;;49.25;39.05;;;;;;;11.67;96.92;102055.13;4950708;29;20173;-46
2022/05/07 05:40:27;;;;;;;51.40;38.50;;;;;;;11.63;96.86;102057.00;4950290;29;20198;-48
2022/05/07 05:42:54;;;;;;;47.20;37.08;;;;;;;11.64;96.56;102068.63;4950706;29;20193;-48
2022/05/07 05:45:20;;;;;;;48.00;37.53;;;;;;;11.52;96.51;102062.63;4949887;29;20218;-47
2022/05/07 05:47:47;;;;;;;45.35;38.58;;;;;;;11.51;96.91;102070.69;4950528;29;20828;-46
2022/05/07 05:50:14;;;;;;;50.53;39.63;;;;;;;11.56;97.26;102071.47;4968374;28;20198;-47
2022/05/07 05:52:44;;;;;;;48.13;38.00;;;;;;;11.67;97.03;102063.19;4969484;28;20269;-46
2022/05/07 05:55:10;;;;;;;50.10;37.95;;;;;;;11.71;97.58;102064.88;4969791;28;20321;-47
2022/05/07 05:57:36;;;;;;;47.67;38.05;;;;;;;11.74;96.52;102063.00;4969520;28;20523;-47
2022/05/07 06:00:06;;;;;;;50.83;37.97;;;;;;;11.81;96.49;102055.69;4969430;28;20309;-48
2022/05/07 06:02:38;;;;;;;44.65;36.90;;;;;;;11.77;96.48;102058.50;4970909;28;20162;-47
2022/05/07 06:05:05;;;;;;;51.15;39.28;;;;;;;11.72;96.50;102066.66;4969194;28;20210;-46
2022/05/07 06:07:32;;;;;;;48.50;37.30;;;;;;;11.80;96.87;102067.34;4970798;28;20182;-47
2022/05/07 06:10:00;;;;;;;49.25;38.13;;;;;;;11.92;96.25;102072.47;4969292;28;20314;-49
2022/05/07 06:12:28;;;;;;;44.65;34.97;;;;;;;12.00;96.31;102079.44;4969725;28;20178;-47
2022/05/07 06:14:55;;;;;;;45.75;35.47;;;;;;;12.18;95.91;102073.63;4968961;28;20656;-47
2022/05/07 06:17:22;;;;;;;48.85;35.65;;;;;;;12.31;94.94;102076.88;4969628;28;20663;-45
2022/05/07 06:19:51;;;;;;;41.33;33.15;;;;;;;12.76;94.33;102069.41;4968797;28;20580;-47
2022/05/07 06:22:18;;;;;;;46.28;35.25;;;;;;;12.96;92.32;102070.66;4969454;28;20528;-47
2022/05/07 06:27:48;;;;;;;40.35;33.22;;;;;;;12.88;90.50;102081.66;4969436;28;20182;-47
2022/05/07 06:30:23;;;;;;;45.38;34.33;;;;;;;12.89;90.08;102078.03;4969090;28;20258;-47
2022/05/07 06:32:54;;;;;;;42.58;32.80;;;;;;;13.06;90.06;102076.69;4969206;28;20273;-47
2022/05/07 06:35:24;;;;;;;41.50;33.25;;;;;;;13.04;89.61;102081.22;4969046;28;20166;-47
2022/05/07 06:37:58;;;;;;;41.42;32.08;;;;;;;13.12;89.27;102081.88;4968962;28;20665;-46
2022/05/07 06:40:25;;;;;;;39.10;31.48;;;;;;;13.34;88.35;102083.03;4969093;28;20221;-45
2022/05/07 06:42:51;;;;;;;38.90;31.83;;;;;;;13.75;87.58;102086.28;4970881;28;20565;-46
2022/05/07 06:45:29;;;;;;;35.35;30.38;;;;;;;13.89;87.00;102082.28;4969091;28;20212;-45
2022/05/07 06:47:54;;;;;;;36.40;29.10;;;;;;;13.75;86.09;102096.16;4970361;28;20198;-44
2022/05/07 06:50:20;;;;;;;36.33;29.05;;;;;;;13.80;86.47;102095.09;4969036;28;20209;-46
2022/05/07 06:52:46;;;;;;;34.05;28.48;;;;;;;13.58;86.36;102102.97;4970564;28;20184;-45
2022/05/07 06:55:15;;;;;;;32.90;25.90;;;;;;;13.71;86.74;102107.97;4969750;28;20217;-45
2022/05/07 06:57:41;;;;;;;32.50;26.27;;;;;;;13.47;86.72;102107.78;4970396;28;20198;-47
2022/05/07 07:00:09;;;;;;;35.67;27.30;;;;;;;13.62;86.08;102110.94;4969996;28;20205;-46
2022/05/07 07:02:35;;;;;;;35.45;27.10;;;;;;;13.49;86.12;102103.25;4970432;28;20531;-46
2022/05/07 07:05:02;;;;;;;37.00;28.13;;;;;;;13.28;87.06;102103.84;4968744;28;20210;-45
2022/05/07 07:07:27;;;;;;;33.05;27.30;;;;;;;13.37;87.68;102104.47;4972596;28;20182;-47
2022/05/07 07:09:53;;;;;;;34.17;26.80;;;;;;;13.29;88.13;102105.63;4973658;28;20205;-45
2022/05/07 07:12:20;;;;;;;33.25;26.33;;;;;;;13.19;87.62;102095.09;4973647;28;20248;-46
2022/05/07 07:14:47;;;;;;;37.95;26.02;;;;;;;13.34;88.04;102098.31;4973770;28;20796;-46
2022/05/07 07:17:13;;;;;;;33.50;27.35;;;;;;;13.33;87.71;102105.50;4973387;28;20182;-46
2022/05/07 07:19:41;;;;;;;37.08;27.38;;;;;;;13.29;88.33;102111.88;4973869;28;20206;-46
2022/05/07 07:22:07;;;;;;;38.97;27.10;;;;;;;13.50;88.28;102117.59;4973493;28;20261;-47
2022/05/07 07:24:32;;;;;;;37.75;27.98;;;;;;;13.52;88.01;102122.00;4973006;28;20232;-45
2022/05/07 07:26:58;;;;;;;34.10;26.02;;;;;;;13.78;87.87;102114.94;4973432;28;20673;-44
2022/05/07 07:29:23;;;;;;;33.55;24.77;;;;;;;14.06;86.60;102125.72;4973217;28;20262;-46
2022/05/07 07:31:49;;;;;;;30.65;25.08;;;;;;;13.96;85.46;102130.50;4969180;28;20190;-45
2022/05/07 07:34:15;;;;;;;31.90;24.83;;;;;;;13.82;85.43;102132.78;4952061;29;20577;-46
2022/05/07 07:36:44;;;;;;;31.92;25.52;;;;;;;13.83;85.76;102136.34;4954293;29;20164;-44
2022/05/07 07:39:10;;;;;;;32.10;26.30;;;;;;;13.63;86.25;102142.34;4953031;28;20209;-44
2022/05/07 07:41:35;;;;;;;30.23;26.90;;;;;;;13.59;86.25;102136.16;4953941;29;20591;-44
2022/05/07 07:44:01;;;;;;;29.83;24.88;;;;;;;13.60;87.05;102141.50;4954168;29;20174;-45
2022/05/07 07:49:10;;;;;;;32.53;27.10;;;;;;;13.51;87.76;102141.78;4963344;28;20186;-46
2022/05/07 07:51:36;;;;;;;33.20;27.00;;;;;;;13.39;87.60;102147.50;4972804;28;20245;-45
2022/05/07 07:54:02;;;;;;;38.28;27.70;;;;;;;13.13;88.73;102145.53;4973095;28;20162;-43
2022/05/07 07:56:27;;;;;;;31.27;26.00;;;;;;;13.29;89.45;102148.69;4961321;28;20178;-43
2022/05/07 07:58:53;;;;;;;33.72;27.20;;;;;;;13.37;89.60;102149.38;4953320;29;20230;-43
2022/05/07 08:01:18;;;;;;;34.33;28.13;;;;;;;13.15;90.30;102152.63;4953693;29;20202;-42
2022/05/07 08:03:43;;;;;;;35.08;28.90;;;;;;;13.27;90.53;102154.13;4953868;29;20186;-44
2022/05/07 08:06:09;;;;;;;33.10;27.17;;;;;;;13.29;90.46;102160.34;4953387;29;20610;-44
2022/05/07 08:14:02;;;;;;;36.88;29.20;;;;;;;13.25;91.25;102155.97;4953693;29;20212;-42
2022/05/07 08:16:27;;;;;;;40.58;29.98;;;;;;;13.15;91.48;102152.63;4953090;29;20261;-43
2022/05/07 08:18:53;;;;;;;35.90;28.60;;;;;;;13.11;91.81;102158.13;4952217;28;20543;-43
2022/05/07 08:21:19;;;;;;;37.45;27.98;;;;;;;13.30;91.85;102155.88;4953409;28;20190;-43
2022/05/07 08:23:45;;;;;;;34.20;27.55;;;;;;;13.45;91.53;102162.63;4953397;29;20202;-42
2022/05/07 08:26:13;;;;;;;32.20;28.73;;;;;;;13.52;91.57;102167.75;4952880;29;20297;-43
2022/05/07 08:28:39;;;;;;;36.00;28.85;;;;;;;13.42;91.82;102163.56;4953242;29;20322;-43
2022/05/07 08:31:04;;;;;;;34.78;29.23;;;;;;;13.45;92.29;102159.94;4952978;28;20234;-42
2022/05/07 08:33:33;;;;;;;30.05;25.58;;;;;;;13.09;93.38;102158.16;4953030;29;20598;-44
2022/05/07 08:35:59;;;;;;;32.85;25.50;;;;;;;13.09;95.06;102168.06;4953178;29;20174;-41
2022/05/07 08:38:24;;;;;;;31.70;24.30;;;;;;;13.14;95.46;102166.13;4953183;29;20186;-46
2022/05/07 08:40:51;;;;;;;25.73;21.40;;;;;;;13.27;95.17;102167.56;4952983;29;20203;-42
2022/05/07 08:43:16;;;;;;;23.13;19.88;;;;;;;13.07;95.80;102167.22;4952777;29;20626;-43
2022/05/07 08:45:43;;;;;;;24.65;19.83;;;;;;;13.08;96.18;102171.69;4950638;29;20214;-43
2022/05/07 08:48:08;;;;;;;21.85;18.67;;;;;;;13.25;96.21;102171.19;4952947;29;20179;-45
2022/05/07 08:50:34;;;;;;;24.92;19.30;;;;;;;13.44;95.71;102168.91;4952758;28;20563;-44
2022/05/07 08:53:01;;;;;;;21.55;17.05;;;;;;;13.55;94.28;102167.66;4952964;29;20222;-41
2022/05/07 08:55:26;;;;;;;21.40;17.92;;;;;;;13.76;93.42;102162.59;4952443;29;20262;-45
2022/05/07 08:57:53;;;;;;;25.88;18.58;;;;;;;13.76;92.82;102174.25;4952581;29;20258;-44
2022/05/07 09:00:23;;;;;;;21.95;17.55;;;;;;;13.58;93.29;102169.41;4952239;29;20206;-43
2022/05/07 09:02:55;;;;;;;22.10;17.25;;;;;;;13.92;92.76;102168.38;4952759;29;20187;-44
2022/05/07 09:05:22;;;;;;;21.02;15.82;;;;;;;14.30;92.15;102161.78;4952248;29;20226;-43
2022/05/07 09:07:57;;;;;;;15.93;14.32;;;;;;;14.37;90.58;102168.75;4952562;29;20227;-43
2022/05/07 09:10:27;;;;;;;15.38;13.82;;;;;;;14.62;90.04;102157.16;4951474;29;20205;-43
2022/05/07 09:12:53;;;;;;;13.45;11.80;;;;;;;15.09;87.68;102165.44;4952349;29;20163;-44
2022/05/07 09:15:19;;;;;;;13.90;11.50;;;;;;;15.27;84.86;102154.91;4952181;29;20187;-45
2022/05/07 09:17:47;;;;;;;12.95;11.65;;;;;;;15.11;84.44;102168.97;4952626;29;20527;-42
2022/05/07 09:20:14;;;;;;;13.65;10.70;;;;;;;15.27;84.65;102166.59;4952184;29;20203;-44
2022/05/07 09:22:56;;;;;;;12.68;11.05;;;;;;;15.28;83.82;102159.34;4952268;29;20668;-44
2022/05/07 09:25:26;;;;;;;14.48;10.40;;;;;;;15.03;83.23;102153.03;4951823;29;20732;-43
2022/05/07 09:27:54;;;;;;;10.98;9.85;;;;;;;15.09;84.08;102161.84;4952584;29;20220;-43
2022/05/07 09:30:27;;;;;;;10.48;9.35;;;;;;;14.67;84.15;102167.78;4951622;28;20206;-44
2022/05/07 09:32:55;;;;;;;10.85;9.70;;;;;;;15.06;84.40;102176.31;4952266;28;20654;-43
2022/05/07 09:35:47;;;;;;;11.05;9.70;;;;;;;15.00;83.72;102161.25;4951790;29;20262;-44
2022/05/07 09:38:14;;;;;;;10.38;9.00;;;;;;;15.10;83.34;102161.78;4951964;28;20214;-43
2022/05/07 09:40:43;;;;;;;10.63;8.10;;;;;;;15.30;82.67;102160.19;4952135;29;20207;-41
2022/05/07 09:43:12;;;;;;;9.00;8.10;;;;;;;15.19;82.03;102165.97;4951959;28;20182;-43
2022/05/07 09:45:39;;;;;;;8.18;7.32;;;;;;;15.06;82.30;102164.66;4951550;29;20902;-43
2022/05/07 09:48:06;;;;;;;7.72;6.60;;;;;;;15.23;82.09;102160.41;4951687;28;20563;-43
2022/05/07 09:58:36;;;;;;;8.00;6.68;;;;;;;15.58;80.44;102171.72;4951628;29;20171;-43
2022/05/07 10:01:34;;;;;;;7.60;6.78;;;;;;;15.66;80.73;102164.22;4951512;28;20198;-42
2022/05/07 10:04:09;;;;;;;7.63;6.55;;;;;;;15.66;80.43;102177.72;4951751;29;20199;-45
2022/05/07 10:06:57;;;;;;;8.05;7.13;;;;;;;15.41;81.07;102176.88;4951064;29;20201;-42
2022/05/07 10:09:58;;;;;;;9.02;6.65;;;;;;;15.92;79.92;102181.28;4951683;29;20170;-43
2022/05/07 10:12:25;;;;;;;9.25;7.40;;;;;;;15.61;79.71;102174.31;4951474;29;20613;-43
2022/05/07 10:14:51;;;;;;;10.95;6.95;;;;;;;15.44;79.66;102180.34;4949861;28;20265;-43
2022/05/07 10:17:21;;;;;;;6.75;6.05;;;;;;;15.57;80.36;102167.25;4951420;28;20361;-44
2022/05/07 10:19:49;;;;;;;8.00;6.30;;;;;;;15.13;79.68;102171.59;4951536;29;20224;-44
2022/05/07 10:22:23;;;;;;;7.93;6.35;;;;;;;15.24;80.44;102175.69;4951647;28;20187;-43
2022/05/07 10:25:04;;;;;;;7.78;6.65;;;;;;;15.49;80.06;102169.38;4950976;28;20190;-42
2022/05/07 10:27:43;;;;;;;8.30;7.45;;;;;;;15.39;80.67;102176.03;4951638;28;20201;-44
2022/05/07 10:30:15;;;;;;;8.65;7.63;;;;;;;14.83;82.05;102174.44;4949860;29;20209;-41
2022/05/07 10:32:55;;;;;;;8.20;7.40;;;;;;;15.04;82.55;102176.41;4950353;29;20193;-43
2022/05/07 10:35:42;;;;;;;8.98;6.55;;;;;;;14.93;83.60;102167.78;4951038;29;20178;-43
2022/05/07 10:38:08;;;;;;;8.20;7.03;;;;;;;15.00;83.11;102173.88;4951350;29;20210;-44
2022/05/07 10:40:34;;;;;;;8.07;7.28;;;;;;;14.78;83.44;102176.41;4951120;28;20813;-43
2022/05/07 10:43:00;;;;;;;8.73;7.55;;;;;;;14.94;83.39;102172.25;4954228;28;20279;-42
2022/05/07 10:45:25;;;;;;;8.05;7.25;;;;;;;15.01;83.04;102170.22;4954843;29;20206;-44
2022/05/07 10:47:54;;;;;;;8.75;7.85;;;;;;;15.20;82.02;102165.94;4954916;29;20167;-43
2022/05/07 10:50:23;;;;;;;11.57;8.23;;;;;;;15.09;81.35;102161.84;4954971;28;20764;-42
2022/05/07 10:52:56;;;;;;;8.63;7.78;;;;;;;15.21;81.51;102162.28;4954458;28;20804;-43
2022/05/07 10:55:27;;;;;;;10.35;8.50;;;;;;;15.02;81.89;102162.06;4954860;28;20717;-45
2022/05/07 10:57:56;;;;;;;9.75;7.85;;;;;;;15.24;81.59;102164.00;4954797;28;20184;-42
2022/05/07 11:00:23;;;;;;;9.77;7.57;;;;;;;15.01;81.00;102164.81;4954751;29;20214;-44
2022/05/07 11:02:55;;;;;;;6.38;5.75;;;;;;;15.30;80.38;102155.66;4954675;28;20183;-43
2022/05/07 11:05:34;;;;;;;7.03;5.88;;;;;;;15.22;77.62;102164.06;4954411;28;20222;-41
2022/05/07 11:08:02;;;;;;;5.60;4.70;;;;;;;15.32;75.77;102153.78;4955016;28;20186;-44
2022/05/07 11:10:29;;;;;;;7.40;4.72;;;;;;;15.52;75.22;102155.72;4954579;28;20241;-43
2022/05/07 11:13:07;;;;;;;6.53;5.60;;;;;;;15.64;75.17;102160.69;4954664;29;20183;-45
2022/05/07 11:15:33;;;;;;;6.40;5.63;;;;;;;15.59;75.96;102157.28;4954274;28;20185;-44
2022/05/07 11:17:59;;;;;;;5.93;5.38;;;;;;;15.59;76.03;102157.28;4954597;29;20553;-43
2022/05/07 11:20:35;;;;;;;8.90;6.03;;;;;;;15.66;76.15;102157.94;4954385;28;20203;-43
2022/05/07 11:23:03;;;;;;;6.28;5.07;;;;;;;15.40;76.49;102167.88;4954267;29;20258;-43
2022/05/07 11:25:28;;;;;;;6.05;5.50;;;;;;;15.41;77.22;102169.66;4954024;28;20201;-41
2022/05/07 11:27:57;;;;;;;5.68;5.18;;;;;;;15.15;76.59;102161.63;4954383;29;20187;-44
2022/05/07 11:30:22;;;;;;;5.93;5.30;;;;;;;15.41;76.46;102158.88;4954111;29;20195;-42
2022/05/07 11:32:48;;;;;;;6.25;5.22;;;;;;;15.42;76.26;102173.25;4954249;29;20195;-42
2022/05/07 11:35:13;;;;;;;5.30;4.78;;;;;;;15.25;76.78;102166.63;4954250;28;20658;-45
2022/05/07 11:37:43;;;;;;;3.90;3.40;;;;;;;15.25;75.08;102166.63;4953906;29;20230;-43
2022/05/07 11:40:11;;;;;;;4.28;2.88;;;;;;;15.30;73.60;102163.75;4954153;28;20214;-43
2022/05/07 11:42:43;;;;;;;2.05;1.88;;;;;;;15.38;71.68;102168.88;4954257;29;20724;-43
2022/05/07 11:45:26;;;;;;;1.98;1.60;;;;;;;15.33;71.13;102154.69;4953564;28;20253;-45
2022/05/07 11:47:59;;;;;;;3.33;2.20;;;;;;;15.64;70.70;102155.28;4954300;28;20191;-42
2022/05/07 11:50:41;;;;;;;4.50;2.33;;;;;;;16.00;70.57;102164.75;4953935;28;20293;-43